Time;durP1;ratioP1;P1;durP2;ratioP2;P2;SDS_P1;SDS_P2;PMS_P1;PMS_P2;Temp;Humidity;BMP_temperature;BMP_pressure;BME280_temperature;BME280_humidity;BME280_pressure;Samples;Min_cycle;Max_cycle;Signal;HPM_P1;HPM_P2
2021/12/25 00:01:10;;;;;;;20.70;16.63;;;10.10;99.90;;;;;;4951239;28;20479;-88
2021/12/25 00:03:38;;;;;;;27.03;17.77;;;10.20;99.90;;;;;;4947811;28;20814;-87
2021/12/25 00:06:05;;;;;;;24.93;18.47;;;10.40;99.90;;;;;;4951269;28;20957;-88
2021/12/25 00:08:33;;;;;;;21.80;18.47;;;10.50;99.90;;;;;;4952033;28;21325;-85
2021/12/25 00:11:01;;;;;;;26.27;19.60;;;10.70;99.90;;;;;;4949703;28;20484;-88
2021/12/25 00:13:28;;;;;;;27.33;18.03;;;10.50;99.90;;;;;;4949875;28;20813;-86
2021/12/25 00:15:55;;;;;;;21.90;17.53;;;10.40;99.90;;;;;;4951213;28;20463;-87
2021/12/25 00:18:22;;;;;;;22.63;17.20;;;10.30;99.90;;;;;;4947541;28;20485;-88
2021/12/25 00:20:49;;;;;;;22.60;17.40;;;10.30;99.90;;;;;;4956174;28;20456;-87
2021/12/25 00:23:19;;;;;;;23.83;19.00;;;10.20;99.90;;;;;;4955023;28;20491;-88
2021/12/25 00:25:51;;;;;;;25.10;18.43;;;10.20;99.90;;;;;;4951243;28;20464;-88
2021/12/25 00:36:01;;;;;;;26.23;20.23;;;10.50;99.90;;;;;;4947476;28;20892;-86
2021/12/25 00:38:28;;;;;;;30.77;21.20;;;10.80;99.90;;;;;;4945331;28;20484;-86
2021/12/25 00:40:55;;;;;;;31.93;20.50;;;10.60;99.90;;;;;;4948484;28;20468;-85
2021/12/25 00:43:21;;;;;;;28.13;19.97;;;10.50;99.90;;;;;;4945825;28;20468;-86
2021/12/25 00:45:48;;;;;;;33.03;22.70;;;10.40;99.90;;;;;;4944681;28;21056;-85
2021/12/25 00:48:15;;;;;;;31.57;22.97;;;10.80;99.90;;;;;;4950716;28;20499;-87
2021/12/25 00:50:42;;;;;;;26.60;19.60;;;11.00;99.90;;;;;;4946425;28;20495;-86
2021/12/25 00:53:08;;;;;;;36.70;22.53;;;10.80;99.90;;;;;;4944592;28;20454;-86
2021/12/25 00:55:35;;;;;;;30.63;20.80;;;10.80;99.90;;;;;;4943036;28;20469;-86
2021/12/25 00:58:02;;;;;;;23.53;15.43;;;10.70;99.90;;;;;;4944455;28;20504;-86
2021/12/25 01:00:29;;;;;;;13.30;10.00;;;10.60;99.90;;;;;;4944384;28;20472;-85
2021/12/25 01:02:56;;;;;;;9.33;7.50;;;10.60;99.90;;;;;;4952842;28;20598;-86
2021/12/25 01:05:23;;;;;;;10.60;6.90;;;10.60;99.90;;;;;;4947746;28;20518;-86
2021/12/25 01:07:50;;;;;;;7.30;5.53;;;10.40;99.90;;;;;;4941556;28;20455;-85
2021/12/25 01:10:19;;;;;;;9.07;6.60;;;10.10;99.90;;;;;;4944725;28;20512;-85
2021/12/25 01:15:18;;;;;;;9.03;6.17;;;10.20;99.90;;;;;;4952049;28;20457;-85
2021/12/25 01:29:12;;;;;;;6.00;5.00;;;10.20;99.90;;;;;;4970746;28;20570;-87
2021/12/25 01:31:48;;;;;;;6.53;4.60;;;10.10;99.90;;;;;;4966041;28;20472;-87
2021/12/25 01:47:43;;;;;;;8.03;4.60;;;9.90;99.90;;;;;;4951542;28;20487;-86
2021/12/25 01:47:50;;;;;;;4.77;4.37;;;9.80;99.90;;;;;;4952213;28;20528;-86
2021/12/25 01:50:26;;;;;;;4.27;3.93;;;9.70;99.90;;;;;;4955822;28;20476;-88
2021/12/25 01:52:55;;;;;;;5.10;4.60;;;9.70;99.90;;;;;;4955375;28;20538;-88
2021/12/25 01:55:31;;;;;;;6.10;4.80;;;9.50;99.90;;;;;;4948105;28;20456;-87
2021/12/25 01:58:00;;;;;;;4.40;3.97;;;9.60;99.90;;;;;;4955651;28;20471;-87
2021/12/25 02:00:46;;;;;;;4.73;4.10;;;9.70;99.90;;;;;;4955603;28;20560;-87
2021/12/25 02:03:15;;;;;;;5.83;4.73;;;9.80;99.90;;;;;;4947763;28;20460;-86
2021/12/25 02:05:42;;;;;;;4.77;4.27;;;9.80;99.90;;;;;;4948224;28;20555;-88
2021/12/25 02:08:20;;;;;;;5.47;4.73;;;9.80;99.90;;;;;;4949727;28;20510;-86
2021/12/25 02:10:47;;;;;;;5.20;4.70;;;9.90;99.90;;;;;;4949074;28;20492;-87
2021/12/25 02:13:16;;;;;;;5.83;4.97;;;9.80;99.90;;;;;;4955131;28;21342;-86
2021/12/25 02:15:45;;;;;;;5.20;4.70;;;9.90;99.90;;;;;;4947362;28;20486;-87
2021/12/25 02:18:19;;;;;;;5.40;4.90;;;9.80;99.90;;;;;;4944028;28;20477;-86
2021/12/25 02:21:00;;;;;;;7.00;4.70;;;9.80;99.90;;;;;;4953140;28;20458;-86
2021/12/25 02:23:27;;;;;;;5.37;4.87;;;9.90;99.90;;;;;;4951789;28;20867;-87
2021/12/25 02:25:56;;;;;;;6.00;5.07;;;9.80;99.90;;;;;;4948400;28;20476;-88
2021/12/25 02:28:25;;;;;;;7.20;5.13;;;9.80;99.90;;;;;;4940986;28;20490;-86
2021/12/25 02:30:55;;;;;;;5.10;4.57;;;9.80;99.90;;;;;;4942789;28;20517;-86
2021/12/25 02:33:24;;;;;;;6.27;5.27;;;9.90;99.90;;;;;;4945456;28;21394;-86
2021/12/25 02:35:51;;;;;;;5.83;5.17;;;10.10;99.90;;;;;;4946759;28;20952;-89
2021/12/25 02:38:18;;;;;;;4.87;4.40;;;10.00;99.90;;;;;;4943094;28;20972;-87
2021/12/25 02:40:44;;;;;;;5.93;4.37;;;10.00;99.90;;;;;;4960388;28;20453;-88
2021/12/25 02:43:12;;;;;;;5.47;4.97;;;9.90;99.90;;;;;;4959354;28;20927;-88
2021/12/25 02:45:39;;;;;;;5.07;4.57;;;9.80;99.90;;;;;;4956102;28;21011;-89
2021/12/25 02:48:14;;;;;;;4.60;4.20;;;9.80;99.90;;;;;;4963504;28;20488;-88
2021/12/25 02:50:44;;;;;;;4.73;4.33;;;9.80;99.90;;;;;;4958001;28;21807;-87
2021/12/25 02:53:11;;;;;;;4.70;4.20;;;9.80;99.90;;;;;;4953377;28;20459;-88
2021/12/25 02:55:40;;;;;;;4.47;3.80;;;9.70;99.90;;;;;;4954442;28;20537;-87
2021/12/25 02:58:07;;;;;;;5.27;3.67;;;9.70;99.90;;;;;;4956766;28;20480;-89
